createdAt,value
2022-12-17T00:00:34.167Z,99182.97
2022-12-17T00:03:34.565Z,99175.72
2022-12-17T00:06:31.649Z,99181.88
2022-12-17T00:09:25.483Z,99187.81
2022-12-17T00:12:19.397Z,99179.97
2022-12-17T00:15:19.021Z,99178.69
2022-12-17T00:18:28.175Z,99185.41
2022-12-17T00:21:27.934Z,99167.97
2022-12-17T00:24:21.763Z,99157.31
2022-12-17T00:27:18.936Z,99165.25
2022-12-17T00:30:09.694Z,99171.47
2022-12-17T00:33:09.651Z,99166.47
2022-12-17T00:36:12.913Z,99171.50
2022-12-17T00:39:10.174Z,99168.81
2022-12-17T00:42:09.423Z,99166.56
2022-12-17T00:45:07.106Z,99162.59
2022-12-17T00:47:57.924Z,99152.84
2022-12-17T00:50:59.793Z,99142.22
2022-12-17T00:54:11.078Z,99137.72
2022-12-17T00:57:12.464Z,99147.38
2022-12-17T01:00:05.319Z,99152.03
2022-12-17T01:03:00.155Z,99169.09
2022-12-17T01:06:01.929Z,99182.34
2022-12-17T01:09:01.033Z,99187.41
2022-12-17T01:12:01.160Z,99190.72
2022-12-17T01:14:51.978Z,99201.00
2022-12-17T01:17:48.908Z,99197.16
2022-12-17T01:20:39.675Z,99206.25
2022-12-17T01:23:42.805Z,99236.88
2022-12-17T01:26:37.992Z,99261.13
2022-12-17T01:29:32.381Z,99254.47
2022-12-17T01:32:26.000Z,99247.44
2022-12-17T01:35:18.905Z,99250.44
2022-12-17T01:38:12.709Z,99261.78
2022-12-17T01:41:16.918Z,99254.13
2022-12-17T01:44:18.382Z,99264.44
2022-12-17T01:47:16.256Z,99260.78
2022-12-17T01:50:10.053Z,99263.94
2022-12-17T01:53:14.883Z,99265.22
2022-12-17T01:56:09.870Z,99272.69
2022-12-17T01:59:03.728Z,99282.03
2022-12-17T02:02:05.426Z,99280.72
2022-12-17T02:04:57.204Z,99268.72
2022-12-17T02:08:23.951Z,99273.09
2022-12-17T02:11:43.996Z,99277.22
2022-12-17T02:14:49.523Z,99275.06
2022-12-17T02:18:00.156Z,99281.38
2022-12-17T02:21:13.304Z,99295.53
2022-12-17T02:24:24.630Z,99296.50
2022-12-17T02:27:38.592Z,99303.00
2022-12-17T02:30:38.968Z,99299.13
2022-12-17T02:33:38.920Z,99295.66
2022-12-17T02:36:41.917Z,99298.47
2022-12-17T02:39:40.009Z,99290.63
2022-12-17T02:42:38.448Z,99287.97
2022-12-17T02:45:33.909Z,99283.69
2022-12-17T02:48:27.265Z,99285.84
2022-12-17T02:51:20.432Z,99275.69
2022-12-17T02:54:20.488Z,99283.84
2022-12-17T02:57:17.855Z,99281.84
2022-12-17T03:00:11.619Z,99285.13
2022-12-17T03:03:08.780Z,99283.09
2022-12-17T03:05:58.695Z,99286.25
2022-12-17T03:09:05.878Z,99294.88
2022-12-17T03:12:02.554Z,99293.03
2022-12-17T03:14:53.873Z,99305.16
2022-12-17T03:17:50.779Z,99302.34
2022-12-17T03:20:50.971Z,99315.47
2022-12-17T03:23:44.330Z,99316.16
2022-12-17T03:26:45.801Z,99308.00
2022-12-17T03:29:44.679Z,99304.19
2022-12-17T03:32:36.310Z,99316.66
2022-12-17T03:35:30.867Z,99317.31
2022-12-17T03:38:31.561Z,99319.66
2022-12-17T03:41:28.190Z,99320.00
2022-12-17T03:44:27.665Z,99313.34
2022-12-17T03:47:26.916Z,99328.97
2022-12-17T03:50:26.018Z,99340.94
2022-12-17T03:53:29.013Z,99339.94
2022-12-17T03:56:31.303Z,99345.44
2022-12-17T03:59:31.157Z,99341.09
2022-12-17T04:02:28.224Z,99344.25
2022-12-17T04:05:21.980Z,99361.22
2022-12-17T04:08:18.898Z,99378.31
2022-12-17T04:11:18.297Z,99372.84
2022-12-17T04:14:10.162Z,99367.88
2022-12-17T04:17:07.526Z,99373.69
2022-12-17T04:20:09.980Z,99367.16
2022-12-17T04:23:07.314Z,99354.25
2022-12-17T04:26:05.785Z,99364.88
2022-12-17T04:29:10.221Z,99356.91
2022-12-17T04:32:10.759Z,99359.03
2022-12-17T04:35:04.517Z,99351.88
2022-12-17T04:37:59.150Z,99364.19
2022-12-17T04:40:55.560Z,99363.47
2022-12-17T04:43:49.957Z,99364.97
2022-12-17T04:46:46.186Z,99366.25
2022-12-17T04:49:59.459Z,99370.38
2022-12-17T04:53:01.097Z,99372.66
2022-12-17T04:56:00.202Z,99374.28
2022-12-17T04:58:51.083Z,99380.63
2022-12-17T05:01:47.770Z,99378.69
2022-12-17T05:04:42.028Z,99371.97
2022-12-17T05:07:41.208Z,99383.06
2022-12-17T05:10:40.657Z,99403.28
2022-12-17T05:13:49.785Z,99412.13
2022-12-17T05:16:52.347Z,99404.69
2022-12-17T05:19:50.116Z,99406.44
2022-12-17T05:22:44.578Z,99414.06
2022-12-17T05:25:38.826Z,99425.22
2022-12-17T05:28:44.796Z,99424.19
2022-12-17T05:31:46.956Z,99425.81
2022-12-17T05:34:44.240Z,99432.75
2022-12-17T05:37:41.041Z,99437.56
2022-12-17T05:40:35.067Z,99441.38
2022-12-17T05:43:37.349Z,99461.19
2022-12-17T05:46:34.419Z,99467.25
2022-12-17T05:49:31.872Z,99482.72
2022-12-17T05:52:31.057Z,99477.81
2022-12-17T05:55:36.262Z,99483.50
2022-12-17T05:58:36.834Z,99471.81
2022-12-17T06:01:36.332Z,99468.84
2022-12-17T06:04:33.748Z,99479.09
2022-12-17T06:07:33.956Z,99496.94
2022-12-17T06:10:25.537Z,99512.69
2022-12-17T06:13:25.077Z,99503.03
2022-12-17T06:16:21.288Z,99500.19
2022-12-17T06:19:12.213Z,99516.22
2022-12-17T06:22:15.054Z,99510.28
2022-12-17T06:25:12.011Z,99509.41
2022-12-17T06:28:28.064Z,99506.38
2022-12-17T06:31:21.596Z,99519.34
2022-12-17T06:34:20.661Z,99537.06
2022-12-17T06:37:11.493Z,99547.91
2022-12-17T06:40:05.410Z,99563.19
2022-12-17T06:42:59.946Z,99565.53
2022-12-17T06:45:59.696Z,99568.06
2022-12-17T06:48:56.512Z,99572.72
2022-12-17T06:51:49.910Z,99579.88
2022-12-17T06:54:46.307Z,99586.31
2022-12-17T06:57:50.502Z,99593.56
2022-12-17T07:00:47.995Z,99590.84
2022-12-17T07:03:41.853Z,99605.31
2022-12-17T07:06:35.838Z,99601.59
2022-12-17T07:09:33.031Z,99615.88
2022-12-17T07:12:23.986Z,99613.91
2022-12-17T07:15:23.817Z,99629.84
2022-12-17T07:18:25.088Z,99644.63
2022-12-17T07:21:21.258Z,99644.63
2022-12-17T07:24:15.153Z,99638.47
2022-12-17T07:27:08.969Z,99649.19
2022-12-17T07:30:03.932Z,99660.31
2022-12-17T07:33:06.895Z,99657.28
2022-12-17T07:35:57.521Z,99666.00
2022-12-17T07:38:59.836Z,99669.94
2022-12-17T07:41:57.481Z,99669.88
2022-12-17T07:44:52.142Z,99676.13
2022-12-17T07:47:51.619Z,99673.38
2022-12-17T07:50:51.054Z,99678.91
2022-12-17T07:53:49.877Z,99673.91
2022-12-17T07:56:43.643Z,99689.41
2022-12-17T07:59:41.872Z,99683.78
2022-12-17T08:02:43.247Z,99680.13
2022-12-17T08:05:44.616Z,99694.22
2022-12-17T08:08:44.367Z,99683.16
2022-12-17T08:11:38.408Z,99681.13
2022-12-17T08:14:37.910Z,99685.13
2022-12-17T08:17:40.538Z,99681.94
2022-12-17T08:20:47.292Z,99684.97
2022-12-17T08:23:56.580Z,99690.38
2022-12-17T08:26:53.963Z,99691.34
2022-12-17T08:30:04.022Z,99700.00
2022-12-17T08:33:10.737Z,99702.50
2022-12-17T08:36:15.919Z,99722.28
2022-12-17T08:39:12.325Z,99736.81
2022-12-17T08:42:11.933Z,99722.56
2022-12-17T08:45:19.777Z,99731.16
2022-12-17T08:48:48.245Z,99738.19
2022-12-17T08:51:48.837Z,99749.88
2022-12-17T08:54:45.454Z,99747.69
2022-12-17T08:57:44.383Z,99756.22
2022-12-17T09:00:41.500Z,99758.91
2022-12-17T09:03:36.081Z,99757.03
2022-12-17T09:06:27.718Z,99764.00
2022-12-17T09:09:25.851Z,99760.03
2022-12-17T09:12:22.282Z,99756.25
2022-12-17T09:15:22.761Z,99772.63
2022-12-17T09:18:25.814Z,99777.03
2022-12-17T09:21:23.012Z,99778.81
2022-12-17T09:24:22.566Z,99785.66
2022-12-17T09:27:20.067Z,99782.75
2022-12-17T09:30:17.938Z,99794.06
2022-12-17T09:33:15.363Z,99792.19
2022-12-17T09:36:37.577Z,99801.03
2022-12-17T09:39:40.277Z,99795.69
2022-12-17T09:43:02.709Z,99800.44
2022-12-17T09:46:21.518Z,99811.41
2022-12-17T09:49:37.670Z,99804.84
2022-12-17T09:52:50.256Z,99798.91
2022-12-17T09:56:03.859Z,99815.84
2022-12-17T09:59:07.578Z,99795.88
2022-12-17T10:02:06.073Z,99790.16
2022-12-17T10:05:30.601Z,99795.28
2022-12-17T10:08:40.232Z,99808.47
2022-12-17T10:11:48.189Z,99810.16
2022-12-17T10:14:47.229Z,99826.53
2022-12-17T10:17:48.930Z,99818.88
2022-12-17T10:21:10.338Z,99838.00
2022-12-17T10:24:22.652Z,99831.19
2022-12-17T10:27:38.969Z,99850.25
2022-12-17T10:30:44.000Z,99845.47
2022-12-17T10:33:45.793Z,99845.53
2022-12-17T10:36:54.776Z,99835.63
2022-12-17T10:39:49.293Z,99853.69
2022-12-17T10:42:58.000Z,99856.84
2022-12-17T10:45:54.796Z,99856.03
2022-12-17T10:48:59.439Z,99860.13
2022-12-17T10:51:56.998Z,99878.38
2022-12-17T10:55:12.307Z,99869.31
2022-12-17T10:58:11.193Z,99875.09
2022-12-17T11:01:09.017Z,99879.00
2022-12-17T11:04:11.654Z,99898.63
2022-12-17T11:07:05.460Z,99897.94
2022-12-17T11:10:21.195Z,99893.19
2022-12-17T11:13:15.278Z,99906.13
2022-12-17T11:16:17.132Z,99908.78
2022-12-17T11:19:14.435Z,99924.06
2022-12-17T11:22:21.131Z,99928.25
2022-12-17T11:25:46.912Z,99936.09
2022-12-17T11:28:55.133Z,99951.47
2022-12-17T11:32:17.519Z,99957.09
2022-12-17T11:35:32.786Z,99960.69
2022-12-17T11:38:58.165Z,99960.31
2022-12-17T11:42:11.545Z,99970.03
2022-12-17T11:45:25.283Z,99956.56
2022-12-17T11:48:49.010Z,99963.38
2022-12-17T11:52:21.459Z,99990.97
2022-12-17T11:55:41.857Z,99996.06
2022-12-17T11:58:59.446Z,100003.63
2022-12-17T12:02:15.710Z,100001.06
2022-12-17T12:05:37.388Z,100011.50
2022-12-17T12:08:45.575Z,100016.97
2022-12-17T12:12:29.950Z,100009.72
2022-12-17T12:15:59.059Z,100017.66
2022-12-17T12:19:20.797Z,100021.47
2022-12-17T12:23:04.963Z,100030.22
2022-12-17T12:26:07.084Z,100022.09
2022-12-17T12:29:21.751Z,100017.28
2022-12-17T12:32:38.172Z,100024.31
2022-12-17T12:35:42.917Z,100027.16
2022-12-17T12:38:56.295Z,100007.34
2022-12-17T12:42:02.202Z,100014.22
2022-12-17T12:45:34.799Z,100020.59
2022-12-17T12:49:04.542Z,100019.16
2022-12-17T12:51:57.338Z,100034.03
2022-12-17T12:54:50.977Z,100023.25
2022-12-17T12:57:53.773Z,100035.09
2022-12-17T13:01:11.765Z,100052.38
2022-12-17T13:04:47.895Z,100041.06
2022-12-17T13:07:34.079Z,100058.09
2022-12-17T13:10:37.590Z,100068.22
2022-12-17T13:13:40.106Z,100063.69
2022-12-17T13:16:43.720Z,100074.06
2022-12-17T13:19:38.362Z,100083.00
2022-12-17T13:22:24.106Z,100092.91
2022-12-17T13:25:22.340Z,100102.44
2022-12-17T13:28:03.410Z,100123.59
2022-12-17T13:30:42.010Z,100138.16
2022-12-17T13:33:53.858Z,100145.91
2022-12-17T13:37:06.209Z,100143.78
2022-12-17T13:40:25.911Z,100157.38
2022-12-17T13:43:17.666Z,100128.56
2022-12-17T13:46:06.261Z,100126.94
2022-12-17T13:48:58.186Z,100137.56
2022-12-17T13:51:41.020Z,100137.75
2022-12-17T13:54:32.193Z,100145.72
2022-12-17T13:57:39.586Z,100160.56
2022-12-17T14:00:28.128Z,100166.31
2022-12-17T14:03:42.847Z,100161.53
2022-12-17T14:06:30.896Z,100179.22
2022-12-17T14:09:12.217Z,100179.47
2022-12-17T14:12:27.090Z,100170.69
2022-12-17T14:15:08.720Z,100182.78
2022-12-17T14:17:56.707Z,100178.25
2022-12-17T14:20:38.166Z,100168.16
2022-12-17T14:23:35.614Z,100186.34
2022-12-17T14:26:21.542Z,100182.97
2022-12-17T14:29:19.329Z,100189.56
2022-12-17T14:32:07.230Z,100189.41
2022-12-17T14:35:00.780Z,100184.66
2022-12-17T14:37:37.632Z,100192.66
2022-12-17T14:40:14.468Z,100197.25
2022-12-17T14:42:55.492Z,100201.03
2022-12-17T14:46:01.382Z,100214.16
2022-12-17T14:49:06.070Z,100221.84
2022-12-17T14:51:45.166Z,100224.06
2022-12-17T14:54:45.398Z,100245.91
2022-12-17T14:57:30.708Z,100252.59
2022-12-17T15:00:16.351Z,100271.69
2022-12-17T15:03:01.379Z,100263.19
2022-12-17T15:05:46.507Z,100268.09
2022-12-17T15:08:54.180Z,100275.78
2022-12-17T15:11:29.621Z,100272.09
2022-12-17T15:14:21.995Z,100281.59
2022-12-17T15:17:04.680Z,100276.47
2022-12-17T15:19:45.401Z,100283.53
2022-12-17T15:22:31.877Z,100294.66
2022-12-17T15:25:13.410Z,100302.34
2022-12-17T15:28:01.776Z,100319.19
2022-12-17T15:30:42.687Z,100322.59
2022-12-17T15:33:19.562Z,100328.28
2022-12-17T15:36:11.076Z,100342.00
2022-12-17T15:38:50.802Z,100337.72
2022-12-17T15:41:52.125Z,100351.84
2022-12-17T15:44:50.757Z,100357.19
2022-12-17T15:47:32.290Z,100366.38
2022-12-17T15:50:22.461Z,100367.53
2022-12-17T15:53:09.425Z,100366.09
2022-12-17T15:55:45.534Z,100366.38
2022-12-17T15:58:33.648Z,100382.59
2022-12-17T16:01:13.933Z,100375.03
2022-12-17T16:03:55.607Z,100376.59
2022-12-17T16:06:36.162Z,100385.00
2022-12-17T16:09:26.166Z,100379.44
2022-12-17T16:12:13.643Z,100398.00
2022-12-17T16:14:54.871Z,100392.09
2022-12-17T16:17:43.056Z,100389.88
2022-12-17T16:20:29.594Z,100398.50
2022-12-17T16:23:04.302Z,100410.28
2022-12-17T16:25:46.696Z,100409.34
2022-12-17T16:28:30.401Z,100412.94
2022-12-17T16:31:19.835Z,100407.06
2022-12-17T16:33:56.044Z,100404.53
2022-12-17T16:36:52.842Z,100405.56
2022-12-17T16:39:34.196Z,100403.50
2022-12-17T16:42:17.666Z,100422.38
2022-12-17T16:45:11.278Z,100429.69
2022-12-17T16:48:00.071Z,100434.63
2022-12-17T16:50:38.757Z,100441.41
2022-12-17T16:53:24.601Z,100449.50
2022-12-17T16:56:07.608Z,100445.03
2022-12-17T16:58:52.781Z,100453.25
2022-12-17T17:01:57.153Z,100463.22
2022-12-17T17:04:39.496Z,100472.31
2022-12-17T17:07:14.874Z,100468.81
2022-12-17T17:10:03.502Z,100475.44
2022-12-17T17:12:41.177Z,100485.00
2022-12-17T17:15:19.147Z,100474.75
2022-12-17T17:18:01.974Z,100484.44
2022-12-17T17:20:42.219Z,100492.75
2022-12-17T17:23:22.753Z,100503.22
2022-12-17T17:26:07.086Z,100505.53
2022-12-17T17:28:47.657Z,100517.44
2022-12-17T17:34:52.682Z,100515.44
2022-12-17T17:37:37.128Z,100521.59
2022-12-17T17:40:27.983Z,100522.22
2022-12-17T17:43:09.868Z,100522.31
2022-12-17T17:45:44.996Z,100535.53
2022-12-17T17:48:31.775Z,100539.75
2022-12-17T17:51:52.011Z,100545.44
2022-12-17T17:54:42.469Z,100552.56
2022-12-17T17:57:22.825Z,100549.19
2022-12-17T18:00:10.448Z,100545.81
2022-12-17T18:02:54.003Z,100560.06
2022-12-17T18:05:42.634Z,100568.22
2022-12-17T18:08:20.417Z,100569.09
2022-12-17T18:11:06.596Z,100568.84
2022-12-17T18:14:00.472Z,100572.91
2022-12-17T18:16:48.020Z,100579.44
2022-12-17T18:19:32.219Z,100575.22
2022-12-17T18:22:26.503Z,100584.38
2022-12-17T18:25:10.672Z,100584.16
2022-12-17T18:27:54.713Z,100585.22
2022-12-17T18:30:33.581Z,100594.66
2022-12-17T18:33:15.331Z,100593.19
2022-12-17T18:35:57.584Z,100595.22
2022-12-17T18:38:39.465Z,100599.69
2022-12-17T18:41:32.006Z,100605.13
2022-12-17T18:44:18.204Z,100622.44
2022-12-17T18:47:11.509Z,100621.72
2022-12-17T18:49:55.689Z,100629.59
2022-12-17T18:52:35.261Z,100638.09
2022-12-17T18:55:21.089Z,100639.19
2022-12-17T18:57:59.817Z,100645.22
2022-12-17T19:00:49.445Z,100656.78
2022-12-17T19:03:25.336Z,100654.13
2022-12-17T19:06:19.225Z,100662.22
2022-12-17T19:08:54.350Z,100675.09
2022-12-17T19:11:44.526Z,100675.69
2022-12-17T19:14:23.682Z,100683.75
2022-12-17T19:17:15.802Z,100687.50
2022-12-17T19:20:00.415Z,100686.78
2022-12-17T19:22:47.676Z,100695.56
2022-12-17T19:25:25.582Z,100700.84
2022-12-17T19:28:11.973Z,100700.50
2022-12-17T19:30:52.808Z,100706.41
2022-12-17T19:33:34.025Z,100716.81
2022-12-17T19:36:28.476Z,100724.28
2022-12-17T19:39:27.990Z,100725.22
2022-12-17T19:42:03.580Z,100727.88
2022-12-17T19:44:57.064Z,100730.75
2022-12-17T19:48:14.634Z,100733.28
2022-12-17T19:51:07.393Z,100731.97
2022-12-17T19:54:09.506Z,100750.19
2022-12-17T19:56:51.511Z,100746.91
2022-12-17T19:59:34.379Z,100750.63
2022-12-17T20:02:21.920Z,100754.09
2022-12-17T20:05:06.147Z,100771.53
2022-12-17T20:07:48.134Z,100772.72
2022-12-17T20:10:37.015Z,100781.38
2022-12-17T20:13:20.576Z,100782.84
2022-12-17T20:16:18.801Z,100787.34
2022-12-17T20:18:58.572Z,100792.28
2022-12-17T20:21:47.535Z,100792.28
2022-12-17T20:24:32.336Z,100789.28
2022-12-17T20:27:16.617Z,100791.94
2022-12-17T20:29:58.898Z,100798.59
2022-12-17T20:32:53.547Z,100810.16
2022-12-17T20:35:53.394Z,100817.16
2022-12-17T20:38:45.824Z,100826.06
2022-12-17T20:41:27.763Z,100825.97
2022-12-17T20:44:19.964Z,100831.03
2022-12-17T20:47:11.137Z,100840.56
2022-12-17T20:49:51.529Z,100845.25
2022-12-17T20:52:37.366Z,100851.50
2022-12-17T20:55:25.277Z,100857.69
2022-12-17T20:58:16.548Z,100859.16
2022-12-17T21:01:00.102Z,100872.38
2022-12-17T21:03:43.765Z,100870.22
2022-12-17T21:06:21.988Z,100876.84
2022-12-17T21:09:12.842Z,100883.25
2022-12-17T21:11:47.092Z,100886.59
2022-12-17T21:14:46.875Z,100893.88
2022-12-17T21:17:30.955Z,100892.38
2022-12-17T21:20:23.606Z,100900.34
2022-12-17T21:23:07.928Z,100905.28
2022-12-17T21:25:55.123Z,100915.56
2022-12-17T21:28:45.036Z,100913.41
2022-12-17T21:31:37.738Z,100922.31
2022-12-17T21:34:24.340Z,100925.94
2022-12-17T21:37:05.684Z,100932.69
2022-12-17T21:40:02.451Z,100934.88
2022-12-17T21:43:03.638Z,100937.91
2022-12-17T21:45:57.675Z,100938.63
2022-12-17T21:48:41.316Z,100938.78
2022-12-17T21:51:33.456Z,100937.97
2022-12-17T21:54:20.033Z,100943.78
2022-12-17T21:57:06.509Z,100942.00
2022-12-17T21:59:51.109Z,100946.91
2022-12-17T22:02:35.251Z,100954.78
2022-12-17T22:05:23.487Z,100953.16
2022-12-17T22:08:12.814Z,100963.44
2022-12-17T22:11:19.653Z,100973.78
2022-12-17T22:14:12.713Z,100984.16
2022-12-17T22:17:01.634Z,100976.06
2022-12-17T22:19:40.529Z,100979.31
2022-12-17T22:22:27.322Z,100981.22
2022-12-17T22:25:24.083Z,100982.28
2022-12-17T22:28:10.222Z,100995.97
2022-12-17T22:31:12.869Z,100993.38
2022-12-17T22:35:09.205Z,101004.63
2022-12-17T22:40:29.337Z,101009.69
2022-12-17T22:44:30.302Z,101011.50
2022-12-17T22:44:41.674Z,101008.63
2022-12-17T22:46:44.430Z,101015.91
2022-12-17T22:49:25.273Z,101019.78
2022-12-17T22:52:05.774Z,101029.78
2022-12-17T22:54:47.833Z,101032.16
2022-12-17T22:57:36.487Z,101033.84
2022-12-17T23:00:34.602Z,101046.59
2022-12-17T23:03:28.180Z,101039.94
2022-12-17T23:06:48.599Z,101037.78
2022-12-17T23:09:37.729Z,101047.75
2022-12-17T23:12:33.331Z,101052.38
2022-12-17T23:15:13.572Z,101053.94
2022-12-17T23:17:58.271Z,101062.81
2022-12-17T23:20:39.388Z,101070.56
2022-12-17T23:23:19.467Z,101069.13
2022-12-17T23:26:06.160Z,101062.59
2022-12-17T23:28:57.359Z,101062.88
2022-12-17T23:31:40.647Z,101073.59
2022-12-17T23:34:26.502Z,101076.25
2022-12-17T23:37:08.149Z,101089.63
2022-12-17T23:39:58.828Z,101093.00
2022-12-17T23:42:39.895Z,101095.56
2022-12-17T23:45:23.104Z,101107.00
2022-12-17T23:48:12.943Z,101113.16
2022-12-17T23:50:59.717Z,101119.75
2022-12-17T23:53:49.101Z,101119.53
2022-12-17T23:56:30.938Z,101122.63
2022-12-17T23:59:12.900Z,101127.78
